createdAt,value
2018-05-21T00:03:48.380Z,6.73
2018-05-21T00:24:21.504Z,6.03
2018-05-21T00:44:52.782Z,5.50
2018-05-21T01:05:25.166Z,6.30
2018-05-21T01:25:58.103Z,6.03
2018-05-21T01:46:33.381Z,6.20
2018-05-21T02:07:08.646Z,5.00
2018-05-21T02:27:45.763Z,4.47
2018-05-21T02:48:18.273Z,4.73
2018-05-21T03:08:50.482Z,3.67
2018-05-21T03:29:25.433Z,3.50
2018-05-21T04:07:59.619Z,2.83
2018-05-21T04:28:30.584Z,3.50
2018-05-21T04:49:06.773Z,3.30
2018-05-21T05:09:38.979Z,2.93
2018-05-21T05:30:14.506Z,3.50
2018-05-21T05:50:53.773Z,3.33
2018-05-21T06:11:31.211Z,3.73
2018-05-21T06:32:08.088Z,3.60
2018-05-21T06:52:45.521Z,3.50
2018-05-21T07:13:19.513Z,5.07
2018-05-21T07:33:54.785Z,4.13
2018-05-21T07:54:27.175Z,4.70
2018-05-21T08:15:02.405Z,4.90
2018-05-21T08:35:35.380Z,4.67
2018-05-21T08:56:10.844Z,4.57
2018-05-21T09:16:42.880Z,5.43
2018-05-21T09:37:16.592Z,5.07
2018-05-21T09:57:48.180Z,5.03
2018-05-21T10:18:23.449Z,6.13
2018-05-21T10:38:56.570Z,5.17
2018-05-21T10:59:36.164Z,5.00
2018-05-21T11:20:08.045Z,4.90
2018-05-21T11:40:40.230Z,5.80
2018-05-21T12:01:14.586Z,5.40
2018-05-21T12:21:47.706Z,5.40
2018-05-21T12:42:19.907Z,4.70
2018-05-21T13:02:54.417Z,4.97
2018-05-21T13:23:28.303Z,6.37
2018-05-21T13:44:02.650Z,4.20
2018-05-21T14:04:37.924Z,4.50
2018-05-21T14:25:11.057Z,4.40
2018-05-21T14:45:44.742Z,5.10
2018-05-21T15:06:18.517Z,4.80
2018-05-21T15:26:53.790Z,8.30
2018-05-21T15:47:29.199Z,5.47
2018-05-21T16:26:08.769Z,4.10
2018-05-21T16:46:45.397Z,4.97
2018-05-21T17:07:16.284Z,4.30
2018-05-21T17:27:50.601Z,4.00
2018-05-21T17:48:32.622Z,5.83
2018-05-21T18:09:06.984Z,5.00
2018-05-21T18:29:40.536Z,4.97
2018-05-21T18:50:17.785Z,5.90
2018-05-21T19:10:51.066Z,5.13
2018-05-21T19:31:24.991Z,5.40
2018-05-21T19:51:59.036Z,6.30
2018-05-21T20:12:32.466Z,6.50
2018-05-21T20:33:08.656Z,6.23
2018-05-21T20:53:40.856Z,6.70
2018-05-21T21:14:17.053Z,5.97
2018-05-21T21:34:52.344Z,6.67
2018-05-21T21:55:25.774Z,5.30
2018-05-21T22:15:59.798Z,6.30
2018-05-21T22:36:37.835Z,5.90
2018-05-21T22:57:11.265Z,6.53
2018-05-21T23:17:43.484Z,6.10
2018-05-21T23:38:18.892Z,6.40
2018-05-21T23:58:51.858Z,5.90
